Hope, Indiana
Current Conditions -  °F | °C
As of 3:48 PM on Monday 22 Dec 2014 (Local Time) from KBAK Reporting Station
Overcast Overcast  
Wind Chill: 44°   Ceiling: 3000
Heat Index: 46°   Visibility: 10mi
Dew Point: 41°   Wind: 6mph
Humidity: 81%   Direction: 110°ESE
Pressure: 29.78"   Gusts: NA
Location:  39.3°N, 85.77°W
Report Text: KBAK 222048Z 11005KT 10SM OVC030 08/05 A2978
Loading
Personal Weather Stations






























Interactive Weather Map New forecast layout! Learn more

10-Day Weather Forecast

Advertisements
Track Severe Weather on mobile